Time;durP1;ratioP1;P1;durP2;ratioP2;P2;SDS_P1;SDS_P2;PMS_P1;PMS_P2;Temp;Humidity;BMP_temperature;BMP_pressure;BME280_temperature;BME280_humidity;BME280_pressure;Samples;Min_cycle;Max_cycle;Signal;HPM_P1;HPM_P2
2021/05/08 09:20:02;;;;;;;7.10;3.63;;;12.90;55.20;;;;;;6036156;23;20022;-94
2021/05/08 09:49:14;;;;;;;6.47;3.00;;;13.30;50.20;;;;;;5948837;23;20018;-96
2021/05/08 09:57:24;;;;;;;4.43;2.72;;;14.10;46.60;;;;;;5955993;23;20011;-93
2021/05/08 10:03:01;;;;;;;8.02;3.00;;;15.10;44.20;;;;;;6061505;23;20061;-96
2021/05/08 10:06:31;;;;;;;8.63;4.03;;;15.70;42.40;;;;;;6009440;23;20015;-95
2021/05/08 10:09:00;;;;;;;5.03;2.00;;;16.50;40.80;;;;;;6056024;23;20011;-91
2021/05/08 10:11:30;;;;;;;4.53;2.38;;;16.70;40.10;;;;;;5979241;23;20016;-94
2021/05/08 10:22:50;;;;;;;3.75;2.00;;;15.10;40.10;;;;;;5949682;23;20390;-85
2021/05/08 10:43:42;;;;;;;4.57;2.45;;;16.60;37.70;;;;;;5995862;23;20019;-96
2021/05/08 10:46:12;;;;;;;4.50;2.10;;;17.70;36.70;;;;;;6039189;23;20025;-96
2021/05/08 10:51:54;;;;;;;6.95;2.63;;;17.30;33.80;;;;;;6021340;23;19913;-96
2021/05/08 10:54:58;;;;;;;3.95;2.30;;;17.70;33.80;;;;;;6071903;23;20015;-96
2021/05/08 11:32:55;;;;;;;4.60;2.10;;;17.90;36.10;;;;;;5962762;23;20010;-96
2021/05/08 11:44:04;;;;;;;5.20;2.00;;;18.50;34.00;;;;;;5949820;23;20027;-95
2021/05/08 11:46:34;;;;;;;3.72;1.60;;;19.00;35.00;;;;;;6014105;23;20039;-95
2021/05/08 11:57:34;;;;;;;6.22;2.22;;;16.80;38.00;;;;;;6056277;23;20014;-95
2021/05/08 12:05:57;;;;;;;3.85;2.13;;;16.50;39.30;;;;;;6078377;23;20038;-96
2021/05/08 12:08:27;;;;;;;5.68;2.30;;;17.40;38.70;;;;;;6101409;23;20021;-96
2021/05/08 12:14:17;;;;;;;5.38;2.03;;;19.40;35.40;;;;;;6007245;23;20023;-96
2021/05/08 12:16:46;;;;;;;4.95;1.88;;;19.90;33.80;;;;;;6031691;23;20016;-96
2021/05/08 12:19:20;;;;;;;3.03;1.63;;;21.50;32.50;;;;;;6019346;23;20006;-96
2021/05/08 12:21:51;;;;;;;3.97;2.20;;;21.10;32.40;;;;;;5951408;23;20023;-96
2021/05/08 12:24:19;;;;;;;3.60;2.10;;;20.90;32.90;;;;;;6060336;23;20030;-95
2021/05/08 12:26:54;;;;;;;3.58;1.67;;;21.50;33.70;;;;;;6061554;23;20257;-96
2021/05/08 12:29:23;;;;;;;3.92;1.83;;;21.30;33.90;;;;;;6000186;23;21343;-95
2021/05/08 12:31:51;;;;;;;3.15;1.90;;;20.60;34.00;;;;;;6077542;23;20029;-93
2021/05/08 12:37:08;;;;;;;4.95;1.80;;;16.90;38.10;;;;;;5987373;23;20031;-94
2021/05/08 12:39:49;;;;;;;7.57;1.98;;;17.20;38.00;;;;;;6099256;23;20018;-96
2021/05/08 12:48:38;;;;;;;5.05;1.85;;;17.00;37.90;;;;;;5999882;23;20015;-95
2021/05/08 12:57:11;;;;;;;4.88;1.70;;;19.40;34.60;;;;;;6111065;23;20030;-96
2021/05/08 12:59:38;;;;;;;4.82;2.78;;;20.40;33.90;;;;;;6101709;23;20041;-95
2021/05/08 13:02:14;;;;;;;3.42;1.95;;;18.90;34.40;;;;;;6078378;23;20010;-96
2021/05/08 13:04:45;;;;;;;3.33;1.58;;;18.60;35.90;;;;;;6102088;23;20006;-96
2021/05/08 13:07:36;;;;;;;4.03;1.55;;;18.90;35.80;;;;;;6122701;23;20014;-96
2021/05/08 13:10:27;;;;;;;3.38;1.85;;;20.10;34.00;;;;;;6074102;23;20018;-96
2021/05/08 13:12:58;;;;;;;2.47;1.42;;;20.40;33.70;;;;;;6077731;23;20041;-95
2021/05/08 13:18:22;;;;;;;3.10;1.70;;;18.30;35.10;;;;;;6036333;23;20018;-96
2021/05/08 13:20:51;;;;;;;4.72;1.70;;;18.80;36.20;;;;;;6092873;23;20018;-95
2021/05/08 13:23:21;;;;;;;3.92;1.55;;;21.60;33.10;;;;;;6066936;23;20025;-94
2021/05/08 13:25:49;;;;;;;2.83;1.50;;;23.40;30.50;;;;;;6071139;23;20014;-96
2021/05/08 13:28:17;;;;;;;2.58;1.40;;;20.90;32.10;;;;;;6071262;23;20022;-95
2021/05/08 13:30:45;;;;;;;7.43;1.27;;;19.90;33.20;;;;;;6067689;23;20019;-96
2021/05/08 13:35:55;;;;;;;6.40;1.42;;;20.00;33.30;;;;;;6097066;23;20079;-96
2021/05/08 13:38:24;;;;;;;3.50;1.40;;;20.70;32.30;;;;;;6071279;23;20022;-95
2021/05/08 13:43:43;;;;;;;4.32;1.35;;;18.90;33.40;;;;;;6118081;23;19998;-96
2021/05/08 13:46:13;;;;;;;;;;;20.40;33.20;;;;;;6106116;23;20005;-95
2021/05/08 13:48:42;;;;;;;3.03;1.30;;;21.10;32.70;;;;;;6129872;23;19917;-94
2021/05/08 13:51:11;;;;;;;2.60;1.17;;;22.10;30.70;;;;;;6154892;23;20010;-96
2021/05/08 13:53:38;;;;;;;2.47;1.10;;;22.50;30.50;;;;;;6107195;23;20006;-96
2021/05/08 13:56:06;;;;;;;2.33;1.30;;;21.50;31.10;;;;;;6131169;23;20006;-95
2021/05/08 13:58:35;;;;;;;1.77;1.20;;;20.80;31.40;;;;;;6128437;23;20006;-96
2021/05/08 14:01:03;;;;;;;2.88;1.35;;;21.20;31.40;;;;;;6130058;23;20029;-95
2021/05/08 14:03:31;;;;;;;2.72;1.20;;;21.30;31.40;;;;;;6130170;23;20008;-96
2021/05/08 14:05:58;;;;;;;2.30;1.13;;;21.70;31.10;;;;;;6130834;23;20002;-96
2021/05/08 14:08:27;;;;;;;5.00;1.45;;;21.80;30.80;;;;;;6106309;23;21452;-92
2021/05/08 14:11:08;;;;;;;2.28;1.10;;;21.90;30.70;;;;;;6015415;23;20003;-96
2021/05/08 14:13:39;;;;;;;2.83;1.30;;;22.70;30.30;;;;;;5988086;23;20338;-96
2021/05/08 14:16:07;;;;;;;4.47;1.20;;;23.80;29.60;;;;;;6027341;23;20022;-94
2021/05/08 14:18:35;;;;;;;4.57;1.33;;;23.80;29.10;;;;;;6026685;23;20019;-96
2021/05/08 14:21:04;;;;;;;2.35;1.20;;;23.40;28.80;;;;;;6009841;23;20020;-95
2021/05/08 14:23:32;;;;;;;2.65;1.10;;;22.20;30.20;;;;;;6012687;23;20244;-95
2021/05/08 14:26:05;;;;;;;3.30;1.20;;;21.80;30.30;;;;;;6036503;23;20012;-96
2021/05/08 14:28:32;;;;;;;1.95;1.00;;;21.70;31.20;;;;;;5989351;23;20313;-96
2021/05/08 14:31:01;;;;;;;;;;;21.70;31.30;;;;;;6011075;23;20020;-94
2021/05/08 14:33:28;;;;;;;4.13;1.85;;;23.10;30.00;;;;;;5988676;23;19922;-92
2021/05/08 14:35:56;;;;;;;2.33;1.25;;;24.30;29.20;;;;;;6010349;23;20016;-95
2021/05/08 14:38:25;;;;;;;2.45;1.52;;;24.00;28.90;;;;;;5982576;23;20015;-95
2021/05/08 14:40:54;;;;;;;3.88;1.10;;;23.90;29.10;;;;;;5985008;23;20020;-94
2021/05/08 14:43:21;;;;;;;2.92;1.10;;;24.00;29.00;;;;;;6031234;23;20011;-93
2021/05/08 14:45:49;;;;;;;3.50;1.15;;;25.40;28.30;;;;;;5985922;23;20016;-92
2021/05/08 14:48:17;;;;;;;3.92;1.23;;;26.60;28.00;;;;;;5983253;23;20011;-92
2021/05/08 14:50:47;;;;;;;3.45;1.40;;;26.50;27.00;;;;;;5984839;23;20012;-91
2021/05/08 14:53:17;;;;;;;5.90;1.67;;;26.00;27.30;;;;;;5982767;23;20016;-92
2021/05/08 14:55:45;;;;;;;1.73;0.88;;;26.00;27.30;;;;;;6004502;23;20016;-94
2021/05/08 14:58:26;;;;;;;3.33;1.20;;;25.80;27.40;;;;;;6009277;23;20012;-94
2021/05/08 15:00:59;;;;;;;3.63;1.33;;;25.50;27.30;;;;;;6015258;23;20010;-95
2021/05/08 15:03:30;;;;;;;3.33;1.65;;;24.70;28.20;;;;;;6015845;23;20020;-96
2021/05/08 15:05:58;;;;;;;2.78;1.17;;;24.20;28.30;;;;;;5987183;23;20023;-96
2021/05/08 15:08:27;;;;;;;6.63;1.40;;;24.30;29.10;;;;;;6005060;23;20023;-94
2021/05/08 15:10:54;;;;;;;3.83;1.60;;;25.40;28.30;;;;;;5980640;23;20339;-94
2021/05/08 15:13:25;;;;;;;;;;;25.60;27.80;;;;;;5980897;23;20030;-95
2021/05/08 15:16:53;;;;;;;3.67;1.40;;;25.40;27.80;;;;;;5982259;23;19922;-95
2021/05/08 15:19:21;;;;;;;2.78;1.20;;;25.30;27.90;;;;;;6031575;23;20015;-96
2021/05/08 15:21:51;;;;;;;3.88;1.25;;;26.00;27.60;;;;;;5985074;23;20015;-95
2021/05/08 15:24:20;;;;;;;3.35;1.52;;;25.40;27.80;;;;;;6008855;23;20019;-95
2021/05/08 15:26:49;;;;;;;2.35;1.25;;;23.90;28.80;;;;;;6009361;23;20024;-96
2021/05/08 15:29:17;;;;;;;3.03;1.60;;;23.10;29.20;;;;;;5981705;23;20012;-96
2021/05/08 15:31:45;;;;;;;2.65;1.30;;;23.20;29.60;;;;;;6004031;23;20023;-93
2021/05/08 15:34:15;;;;;;;3.33;1.20;;;24.30;29.10;;;;;;6003475;23;20018;-93
2021/05/08 15:36:42;;;;;;;3.42;1.42;;;23.10;29.00;;;;;;5956396;23;20048;-96
2021/05/08 15:39:10;;;;;;;2.92;1.55;;;21.10;30.60;;;;;;5979699;23;20019;-96
2021/05/08 15:41:37;;;;;;;7.10;1.83;;;20.20;32.20;;;;;;5981407;23;20020;-96
2021/05/08 15:44:06;;;;;;;2.50;1.30;;;19.70;33.20;;;;;;5979630;23;20023;-95
2021/05/08 15:46:34;;;;;;;2.75;1.55;;;19.30;33.40;;;;;;5990046;23;20027;-96
2021/05/08 15:49:04;;;;;;;4.82;1.60;;;18.70;34.10;;;;;;6013777;23;20026;-93
2021/05/08 15:51:31;;;;;;;5.88;1.55;;;18.20;34.70;;;;;;5993073;23;20014;-94
2021/05/08 15:53:59;;;;;;;4.22;1.40;;;18.00;35.30;;;;;;6013530;23;20004;-93
2021/05/08 15:56:27;;;;;;;3.00;1.30;;;18.00;35.70;;;;;;6010400;23;20023;-96
2021/05/08 15:58:55;;;;;;;5.80;1.40;;;18.20;35.80;;;;;;5985205;23;20023;-95
2021/05/08 16:01:22;;;;;;;4.68;1.55;;;18.70;35.40;;;;;;6007274;23;20023;-94
2021/05/08 16:03:50;;;;;;;3.47;1.40;;;19.20;35.20;;;;;;6010891;23;20023;-96
2021/05/08 16:06:17;;;;;;;3.72;1.40;;;19.00;34.80;;;;;;5984152;23;20012;-96
2021/05/08 16:08:45;;;;;;;3.45;1.48;;;18.80;35.30;;;;;;5982655;23;20327;-95
2021/05/08 16:11:12;;;;;;;3.63;1.80;;;18.60;35.50;;;;;;5983610;23;20079;-96
2021/05/08 16:13:40;;;;;;;7.53;2.63;;;18.90;35.70;;;;;;5983857;23;20019;-94
2021/05/08 16:16:09;;;;;;;6.30;1.77;;;19.50;35.40;;;;;;6005281;23;20240;-94
2021/05/08 16:18:37;;;;;;;3.50;1.50;;;20.10;34.40;;;;;;6006465;23;20012;-93
2021/05/08 16:21:10;;;;;;;4.75;2.22;;;20.50;34.00;;;;;;6005295;23;20022;-92
2021/05/08 16:23:38;;;;;;;3.90;1.52;;;20.40;34.10;;;;;;5982256;23;20330;-93
2021/05/08 16:26:06;;;;;;;3.80;1.67;;;20.80;34.10;;;;;;6006814;23;20019;-93
2021/05/08 16:28:35;;;;;;;4.68;1.80;;;20.80;33.50;;;;;;6008012;23;20016;-93
2021/05/08 16:31:08;;;;;;;3.10;1.25;;;21.00;33.70;;;;;;6009473;23;20304;-93
2021/05/08 16:33:37;;;;;;;3.05;1.50;;;21.10;33.40;;;;;;5984309;23;20011;-93
2021/05/08 16:36:07;;;;;;;4.68;1.30;;;21.10;33.40;;;;;;6004536;23;20019;-94
2021/05/08 16:38:34;;;;;;;4.85;1.75;;;20.80;33.70;;;;;;6008893;23;20015;-94
2021/05/08 16:41:02;;;;;;;3.07;1.33;;;20.70;34.10;;;;;;6008023;23;20018;-93
2021/05/08 16:43:34;;;;;;;7.78;1.90;;;20.70;34.30;;;;;;5985426;23;20022;-94
2021/05/08 16:46:03;;;;;;;5.38;1.98;;;20.60;34.60;;;;;;6006537;23;20015;-92
2021/05/08 16:48:32;;;;;;;4.28;1.73;;;21.10;34.40;;;;;;5987386;23;20003;-92
2021/05/08 16:51:02;;;;;;;5.03;1.80;;;21.40;34.10;;;;;;5987135;23;20024;-93
2021/05/08 16:53:32;;;;;;;4.90;1.67;;;21.80;33.40;;;;;;6008507;23;20264;-95
2021/05/08 16:55:59;;;;;;;5.45;1.73;;;21.60;33.30;;;;;;5965413;23;20012;-95
2021/05/08 16:58:27;;;;;;;7.72;2.85;;;21.00;34.10;;;;;;6008398;23;20011;-94
2021/05/08 17:00:55;;;;;;;6.30;1.90;;;20.60;34.90;;;;;;6008963;23;20012;-96
2021/05/08 17:03:30;;;;;;;3.33;1.45;;;19.90;34.70;;;;;;6010368;23;20015;-94
2021/05/08 17:05:58;;;;;;;2.60;1.35;;;19.70;35.10;;;;;;6035184;23;20018;-93
2021/05/08 17:08:28;;;;;;;2.33;1.17;;;19.20;35.40;;;;;;5991846;23;20008;-91
2021/05/08 17:11:00;;;;;;;6.07;2.42;;;18.30;36.30;;;;;;6047425;23;20019;-96
2021/05/08 17:13:28;;;;;;;3.45;1.83;;;18.00;37.50;;;;;;6045010;23;20014;-95
2021/05/08 17:15:57;;;;;;;4.05;1.60;;;17.90;38.40;;;;;;6043448;23;20016;-95
2021/05/08 17:18:25;;;;;;;4.93;1.50;;;17.90;39.20;;;;;;6019715;23;20023;-94
2021/05/08 17:20:53;;;;;;;3.80;1.40;;;18.00;38.60;;;;;;6042980;23;20065;-96
2021/05/08 17:23:21;;;;;;;5.10;2.50;;;17.90;38.50;;;;;;6043092;23;20011;-95
2021/05/08 17:25:48;;;;;;;3.60;1.60;;;17.90;38.80;;;;;;6038687;23;20023;-94
2021/05/08 17:28:16;;;;;;;4.13;1.67;;;17.80;39.20;;;;;;6039710;23;20015;-96
2021/05/08 17:30:45;;;;;;;3.33;1.48;;;17.80;39.40;;;;;;6060904;23;20015;-96
2021/05/08 17:33:12;;;;;;;4.18;1.65;;;17.80;39.20;;;;;;6032780;23;20018;-94
2021/05/08 17:35:40;;;;;;;3.40;1.50;;;17.80;39.50;;;;;;6011976;23;20018;-96
2021/05/08 17:38:08;;;;;;;4.47;1.53;;;17.70;39.40;;;;;;6033243;23;20019;-94
2021/05/08 17:40:36;;;;;;;3.37;1.30;;;17.60;39.90;;;;;;6057159;23;20022;-96
2021/05/08 17:43:04;;;;;;;3.03;1.30;;;17.50;40.20;;;;;;6032810;23;20012;-95
2021/05/08 17:45:32;;;;;;;4.47;1.70;;;17.50;40.30;;;;;;6010738;23;20019;-94
2021/05/08 17:48:00;;;;;;;7.68;3.08;;;17.50;40.40;;;;;;6083877;23;20018;-94
2021/05/08 17:50:28;;;;;;;4.20;1.83;;;17.40;40.70;;;;;;6010379;23;20086;-96
2021/05/08 17:52:57;;;;;;;3.08;1.45;;;17.40;40.60;;;;;;6055162;23;20026;-95
2021/05/08 17:55:24;;;;;;;4.35;1.80;;;17.40;40.60;;;;;;6033623;23;20018;-95
2021/05/08 17:57:54;;;;;;;4.20;2.05;;;17.30;40.90;;;;;;6012850;23;20015;-95
2021/05/08 18:00:22;;;;;;;4.25;1.90;;;17.20;41.20;;;;;;6016789;23;20019;-95
2021/05/08 18:02:58;;;;;;;5.68;1.80;;;17.20;41.30;;;;;;6087921;23;20047;-96
2021/05/08 18:05:26;;;;;;;6.32;2.10;;;17.20;41.50;;;;;;6014397;23;20345;-95
2021/05/08 18:07:54;;;;;;;5.93;2.13;;;17.10;41.60;;;;;;6034168;23;20018;-95
2021/05/08 18:10:24;;;;;;;3.63;1.58;;;17.00;42.00;;;;;;6009382;23;20011;-95
2021/05/08 18:12:54;;;;;;;5.40;2.65;;;17.00;42.00;;;;;;6056546;23;20019;-93
2021/05/08 18:15:24;;;;;;;4.25;1.95;;;16.90;42.30;;;;;;6034044;23;20015;-95
2021/05/08 18:17:53;;;;;;;3.97;1.70;;;16.80;42.30;;;;;;6032965;23;20019;-95
2021/05/08 18:20:22;;;;;;;4.43;1.70;;;16.90;42.30;;;;;;6037821;23;20021;-93
2021/05/08 18:22:50;;;;;;;6.72;2.05;;;16.80;42.30;;;;;;6043046;23;20007;-96
2021/05/08 18:25:18;;;;;;;4.40;1.92;;;16.90;42.50;;;;;;6022080;23;20015;-94
2021/05/08 18:27:56;;;;;;;7.75;1.60;;;16.80;42.50;;;;;;6046630;23;20004;-95
2021/05/08 18:30:24;;;;;;;4.93;2.35;;;16.60;42.80;;;;;;6041486;23;20011;-96
2021/05/08 18:32:56;;;;;;;6.85;2.30;;;16.60;42.90;;;;;;6067272;23;20011;-96
2021/05/08 18:35:25;;;;;;;3.47;1.77;;;16.50;43.50;;;;;;6038190;23;20014;-95
2021/05/08 18:37:52;;;;;;;3.92;2.05;;;16.40;43.50;;;;;;6080730;23;20047;-93
2021/05/08 18:40:22;;;;;;;4.95;2.10;;;16.30;43.70;;;;;;6036172;23;20015;-95
2021/05/08 18:42:55;;;;;;;6.28;3.33;;;16.30;43.80;;;;;;6040982;23;20018;-95
2021/05/08 18:45:27;;;;;;;7.15;2.78;;;16.30;43.80;;;;;;6041924;23;20011;-96
2021/05/08 18:47:57;;;;;;;6.82;2.30;;;16.30;44.00;;;;;;6091059;23;20007;-96
2021/05/08 18:50:26;;;;;;;4.68;2.60;;;16.20;44.20;;;;;;6017986;23;20074;-95
2021/05/08 18:52:56;;;;;;;11.45;5.28;;;16.20;44.20;;;;;;6016453;23;20011;-95
2021/05/08 18:55:25;;;;;;;5.60;2.60;;;16.20;44.60;;;;;;6065854;23;20080;-96
2021/05/08 18:57:58;;;;;;;7.13;3.20;;;16.20;44.50;;;;;;6018071;23;19999;-95
2021/05/08 19:00:26;;;;;;;6.57;2.42;;;16.20;44.70;;;;;;6039551;23;20011;-94
2021/05/08 19:02:55;;;;;;;4.47;2.10;;;16.20;44.60;;;;;;5996266;23;20019;-94
2021/05/08 19:05:24;;;;;;;6.72;2.30;;;16.10;44.90;;;;;;6062009;23;20018;-95
2021/05/08 19:07:52;;;;;;;5.07;2.40;;;16.10;45.00;;;;;;5989560;23;20012;-96
2021/05/08 19:10:23;;;;;;;6.70;2.90;;;16.00;45.50;;;;;;6084330;23;20019;-95
2021/05/08 19:12:54;;;;;;;7.65;3.72;;;15.90;46.00;;;;;;6013993;23;20224;-96
2021/05/08 19:15:28;;;;;;;10.40;4.68;;;15.80;46.40;;;;;;6058109;23;20022;-92
2021/05/08 19:17:58;;;;;;;10.82;5.55;;;15.80;47.10;;;;;;6058744;23;20015;-93
2021/05/08 19:20:26;;;;;;;;;;;15.80;47.50;;;;;;6036439;23;20022;-94
2021/05/08 19:22:58;;;;;;;9.20;5.07;;;15.70;47.80;;;;;;6015386;23;19922;-95
2021/05/08 19:25:26;;;;;;;11.57;5.85;;;15.70;48.00;;;;;;6035952;23;20015;-94
2021/05/08 19:27:54;;;;;;;12.23;5.55;;;15.70;48.40;;;;;;6059078;23;20047;-95
2021/05/08 19:30:22;;;;;;;11.27;6.05;;;15.70;48.90;;;;;;6010591;23;20007;-91
2021/05/08 19:32:52;;;;;;;11.57;6.13;;;15.60;49.10;;;;;;6060988;23;20018;-92
2021/05/08 19:35:20;;;;;;;11.70;5.45;;;15.60;49.30;;;;;;6040218;23;20010;-91
2021/05/08 19:37:49;;;;;;;12.23;5.70;;;15.60;49.50;;;;;;6016583;23;20011;-92
2021/05/08 19:40:23;;;;;;;9.88;5.30;;;15.50;49.80;;;;;;6062022;23;20018;-92
2021/05/08 19:42:57;;;;;;;13.02;5.90;;;15.50;50.20;;;;;;6035449;23;20026;-91
2021/05/08 19:45:26;;;;;;;16.27;6.85;;;15.50;49.80;;;;;;6059410;23;20026;-91
2021/05/08 19:47:56;;;;;;;51.33;20.20;;;15.50;48.60;;;;;;6015184;23;20006;-95
2021/05/08 19:50:25;;;;;;;11.65;5.45;;;15.50;49.60;;;;;;6020321;23;20011;-93
2021/05/08 19:52:59;;;;;;;10.00;4.82;;;15.50;48.80;;;;;;6042852;23;20023;-94
2021/05/08 19:55:28;;;;;;;6.97;4.13;;;15.50;48.70;;;;;;6040925;23;20043;-95
2021/05/08 19:57:58;;;;;;;12.68;3.60;;;15.60;47.50;;;;;;5990615;23;20022;-95
2021/05/08 20:00:46;;;;;;;7.30;3.58;;;15.60;47.50;;;;;;6040036;23;20011;-96
2021/05/08 20:03:15;;;;;;;5.80;2.55;;;15.80;47.10;;;;;;6042405;23;20038;-96
2021/05/08 20:05:47;;;;;;;8.63;3.20;;;15.80;46.60;;;;;;6018809;23;20015;-96
2021/05/08 20:08:29;;;;;;;6.55;2.72;;;15.80;47.10;;;;;;6041315;23;20015;-96
2021/05/08 20:10:59;;;;;;;8.93;2.83;;;15.80;46.70;;;;;;6037099;23;20030;-96
2021/05/08 20:13:27;;;;;;;5.80;2.53;;;15.70;46.70;;;;;;6060285;23;20015;-96
2021/05/08 20:15:57;;;;;;;5.13;2.65;;;15.60;46.90;;;;;;6036903;23;20019;-95
2021/05/08 20:18:27;;;;;;;10.95;2.90;;;15.60;47.30;;;;;;6011137;23;20018;-96
2021/05/08 20:20:55;;;;;;;4.70;2.40;;;15.50;47.50;;;;;;6037210;23;20018;-94
2021/05/08 20:23:24;;;;;;;6.32;3.05;;;15.40;47.90;;;;;;6015692;23;20014;-95
2021/05/08 20:25:58;;;;;;;9.93;4.97;;;15.40;48.40;;;;;;6035818;23;20077;-95
2021/05/08 20:28:27;;;;;;;9.73;4.60;;;15.30;48.70;;;;;;6034850;23;20025;-96
2021/05/08 20:30:55;;;;;;;5.15;3.05;;;15.30;48.90;;;;;;6012404;23;20015;-95
2021/05/08 20:33:25;;;;;;;4.78;2.13;;;15.20;48.80;;;;;;6012918;23;20011;-96
2021/05/08 20:35:54;;;;;;;8.95;4.28;;;15.20;49.10;;;;;;6059980;23;20018;-96
2021/05/08 20:38:22;;;;;;;;;;;15.20;49.40;;;;;;6012151;23;20015;-95
2021/05/08 20:40:51;;;;;;;4.45;2.67;;;15.20;49.60;;;;;;6035014;23;19938;-96
2021/05/08 20:43:20;;;;;;;8.93;3.45;;;15.20;49.60;;;;;;6014666;23;20015;-96
2021/05/08 20:45:48;;;;;;;;;;;15.20;49.50;;;;;;6014904;23;20015;-94
2021/05/08 20:48:17;;;;;;;5.75;2.22;;;15.30;49.50;;;;;;6014797;23;19922;-95
2021/05/08 20:50:46;;;;;;;;;;;15.30;49.50;;;;;;6038942;23;20026;-95
2021/05/08 20:53:13;;;;;;;6.45;2.75;;;15.30;49.60;;;;;;6036167;23;19933;-94
2021/05/08 20:55:41;;;;;;;4.47;2.33;;;15.20;49.80;;;;;;6041970;23;20023;-94
2021/05/08 20:58:10;;;;;;;4.82;2.15;;;15.30;49.60;;;;;;6018566;23;20015;-96
2021/05/08 21:00:39;;;;;;;4.88;2.50;;;15.30;49.80;;;;;;6016676;23;20011;-95
2021/05/08 21:03:11;;;;;;;5.53;2.10;;;15.40;49.80;;;;;;6066022;23;20007;-94
2021/05/08 21:05:39;;;;;;;6.93;2.83;;;15.40;49.70;;;;;;6013809;23;20015;-95
2021/05/08 21:08:06;;;;;;;4.07;2.00;;;15.50;49.50;;;;;;6082258;23;20007;-94
2021/05/08 21:10:34;;;;;;;5.07;2.37;;;15.50;49.80;;;;;;6082128;23;20014;-95
2021/05/08 21:13:03;;;;;;;5.00;2.03;;;15.30;50.00;;;;;;6033556;23;20192;-93
2021/05/08 21:15:30;;;;;;;5.57;2.53;;;15.20;50.20;;;;;;6058291;23;20014;-95
2021/05/08 21:17:58;;;;;;;5.10;2.35;;;15.20;50.40;;;;;;6060378;23;20046;-94
2021/05/08 21:20:26;;;;;;;8.10;2.97;;;15.20;50.50;;;;;;6035833;23;20023;-94
2021/05/08 21:22:53;;;;;;;3.72;2.40;;;15.20;50.70;;;;;;6035835;23;20019;-94
2021/05/08 21:25:21;;;;;;;11.13;3.40;;;15.20;50.70;;;;;;6039369;23;20023;-94
2021/05/08 21:27:48;;;;;;;6.13;2.95;;;15.20;50.90;;;;;;6038601;23;20018;-94
2021/05/08 21:30:17;;;;;;;4.93;2.78;;;15.20;51.10;;;;;;6058495;23;20008;-95
2021/05/08 21:32:46;;;;;;;5.13;2.33;;;15.20;51.20;;;;;;6076203;23;20007;-95
2021/05/08 21:35:15;;;;;;;5.20;2.80;;;15.30;51.10;;;;;;6010659;23;20022;-95
2021/05/08 21:37:44;;;;;;;;;;;15.20;51.50;;;;;;6055215;23;20055;-94
2021/05/08 21:40:13;;;;;;;5.03;2.15;;;15.10;51.60;;;;;;6034168;23;19925;-93
2021/05/08 21:42:42;;;;;;;5.50;2.40;;;15.10;51.90;;;;;;6008400;23;20015;-96
2021/05/08 21:45:13;;;;;;;4.88;2.25;;;15.20;51.80;;;;;;6029335;23;20011;-95
2021/05/08 21:47:44;;;;;;;6.28;2.58;;;15.20;52.20;;;;;;6027893;23;20047;-95
2021/05/08 21:50:11;;;;;;;4.43;2.30;;;15.00;52.50;;;;;;6053140;23;20239;-96
2021/05/08 21:52:40;;;;;;;5.63;2.38;;;15.00;52.70;;;;;;6006111;23;20013;-95
2021/05/08 21:55:08;;;;;;;4.55;1.95;;;15.00;52.90;;;;;;6029933;23;20015;-92
2021/05/08 21:57:39;;;;;;;5.30;2.42;;;15.00;53.20;;;;;;6006635;23;20055;-94
2021/05/08 22:00:24;;;;;;;5.68;2.88;;;14.90;53.60;;;;;;6083951;23;20010;-95
2021/05/08 22:02:52;;;;;;;4.28;2.28;;;14.80;54.40;;;;;;6043657;23;20026;-96
2021/05/08 22:05:23;;;;;;;5.05;2.10;;;14.90;54.00;;;;;;6022479;23;20007;-96
2021/05/08 22:07:51;;;;;;;4.15;1.85;;;15.00;53.80;;;;;;6022036;23;20007;-95
2021/05/08 22:10:19;;;;;;;;;;;15.00;54.00;;;;;;6042314;23;20011;-93
2021/05/08 22:12:48;;;;;;;4.47;2.33;;;14.90;54.10;;;;;;6040559;23;19933;-96
2021/05/08 22:15:17;;;;;;;4.10;1.85;;;14.80;54.50;;;;;;6062989;23;20050;-95
2021/05/08 22:17:45;;;;;;;5.90;2.10;;;14.80;54.90;;;;;;6014849;23;20015;-96
2021/05/08 22:20:17;;;;;;;3.42;1.80;;;14.70;55.10;;;;;;6085471;23;20389;-96
2021/05/08 22:22:45;;;;;;;4.47;2.03;;;14.80;55.00;;;;;;6084314;23;20023;-96
2021/05/08 22:25:15;;;;;;;4.00;1.88;;;14.80;55.00;;;;;;5987478;23;20023;-96
2021/05/08 22:27:43;;;;;;;3.10;1.70;;;14.70;55.30;;;;;;6076128;23;20086;-96
2021/05/08 22:30:14;;;;;;;4.30;1.73;;;14.70;55.30;;;;;;6029712;23;20011;-96
2021/05/08 22:32:42;;;;;;;4.65;2.05;;;14.70;55.60;;;;;;6029595;23;20015;-95
2021/05/08 22:35:10;;;;;;;5.00;2.20;;;14.70;55.70;;;;;;6029071;23;20011;-95
2021/05/08 22:37:38;;;;;;;;;;;14.70;55.80;;;;;;6007251;23;20347;-95
2021/05/08 22:40:07;;;;;;;3.97;1.75;;;14.60;55.80;;;;;;6057649;23;20011;-95
2021/05/08 22:42:36;;;;;;;4.05;2.30;;;14.60;56.10;;;;;;6008933;23;20015;-95
2021/05/08 22:45:04;;;;;;;4.15;1.95;;;14.50;56.40;;;;;;6006189;23;20015;-95
2021/05/08 22:47:35;;;;;;;5.18;2.30;;;14.60;56.60;;;;;;6051903;23;20042;-95
2021/05/08 22:50:08;;;;;;;5.18;2.00;;;14.50;56.60;;;;;;6031589;23;20011;-96
2021/05/08 22:52:38;;;;;;;4.53;1.95;;;14.60;56.70;;;;;;6014346;23;20018;-95
2021/05/08 22:55:12;;;;;;;4.35;2.10;;;14.50;56.90;;;;;;6067975;23;20003;-94
2021/05/08 22:57:41;;;;;;;4.15;2.10;;;14.40;57.20;;;;;;6069099;23;20015;-95
2021/05/08 23:00:11;;;;;;;3.85;2.00;;;14.50;57.50;;;;;;6021202;23;20019;-94
2021/05/08 23:02:39;;;;;;;4.28;2.08;;;14.40;57.60;;;;;;6090999;23;20011;-96
2021/05/08 23:05:08;;;;;;;;;;;14.50;57.60;;;;;;6064729;23;20320;-94
2021/05/08 23:07:36;;;;;;;5.72;2.28;;;14.40;58.00;;;;;;6019246;23;19926;-95
2021/05/08 23:10:07;;;;;;;3.72;2.00;;;14.40;58.20;;;;;;6018008;23;20011;-95
2021/05/08 23:12:35;;;;;;;5.70;2.08;;;14.40;58.20;;;;;;6039351;23;20031;-96
2021/05/08 23:15:04;;;;;;;5.30;2.87;;;14.50;58.20;;;;;;6065924;23;20015;-94
2021/05/08 23:17:38;;;;;;;4.05;2.10;;;14.40;58.30;;;;;;6043363;23;20366;-96
2021/05/08 23:20:09;;;;;;;4.18;1.90;;;14.50;58.20;;;;;;6017837;23;20004;-94
2021/05/08 23:22:37;;;;;;;4.88;2.17;;;14.40;58.50;;;;;;6087221;23;20015;-96
2021/05/08 23:25:05;;;;;;;6.78;2.03;;;14.40;58.50;;;;;;6065515;23;20016;-96
2021/05/08 23:27:32;;;;;;;4.65;2.17;;;14.50;58.60;;;;;;6038350;23;20017;-95
2021/05/08 23:29:59;;;;;;;8.45;2.08;;;14.40;58.70;;;;;;6038042;23;20018;-96
2021/05/08 23:32:28;;;;;;;4.63;2.10;;;14.40;58.70;;;;;;6015854;23;20022;-95
2021/05/08 23:34:56;;;;;;;5.75;2.00;;;14.30;58.50;;;;;;6062819;23;20019;-96
2021/05/08 23:37:26;;;;;;;4.97;2.30;;;14.30;58.90;;;;;;6040981;23;20015;-94
2021/05/08 23:39:58;;;;;;;8.02;2.30;;;14.10;59.10;;;;;;6015684;23;20015;-96
2021/05/08 23:42:26;;;;;;;5.68;2.10;;;14.00;59.70;;;;;;6033278;23;20015;-95
2021/05/08 23:44:55;;;;;;;6.80;2.20;;;14.00;59.90;;;;;;6035284;23;20015;-95
2021/05/08 23:47:23;;;;;;;6.68;2.25;;;13.90;60.40;;;;;;6014356;23;20015;-95
2021/05/08 23:49:51;;;;;;;5.85;2.00;;;13.90;59.90;;;;;;6015315;23;20011;-95
2021/05/08 23:52:19;;;;;;;6.25;1.95;;;13.90;60.00;;;;;;6015698;23;20319;-92
2021/05/08 23:54:47;;;;;;;3.90;1.75;;;13.90;59.90;;;;;;6015772;23;20014;-93
